This is the latest recevied weather packets stored in our database for station/object K5NWZ. If no packets are shown the sender has not sent any weather packets the latest 10 day(s).
| Time | Temp. | Humidity | Pressure | Rain* | Wind** | Luminosity | Snow |
|---|---|---|---|---|---|---|---|
| 1787752063 | 18.89° C | 69% | 1036.2 hPa | 0 mm | - | 133 W/m² | - |
| 1787751758 | 18.33° C | 70% | 1036.1 hPa | 0 mm | - | 119 W/m² | - |
| 1787751454 | 17.78° C | 71% | 1036.4 hPa | 0 mm | - | 109 W/m² | - |
| 1787751149 | 17.78° C | 72% | 1036.1 hPa | 0 mm | - | 97 W/m² | - |
| 1787750844 | 17.78° C | 72% | 1036 hPa | 0 mm | - | 84 W/m² | - |
| 1787750540 | 17.78° C | 72% | 1035.8 hPa | 0 mm | - | 74 W/m² | - |
| 1787750235 | 17.22° C | 74% | 1035.9 hPa | 0 mm | - | 64 W/m² | - |
| 1787749930 | 16.67° C | 77% | 1035.8 hPa | 0 mm | - | 53 W/m² | - |
| 1787749626 | 15.56° C | 81% | 1035.7 hPa | 0 mm | - | 43 W/m² | - |
| 1787749321 | 15° C | 83% | 1035.9 hPa | 0 mm | - | 28 W/m² | - |
| 1787749015 | 15° C | 83% | 1035.5 hPa | 0 mm | - | 24 W/m² | - |
| 1787748711 | 15° C | 82% | 1035.5 hPa | 0 mm | - | 21 W/m² | - |
| 1787748405 | 15° C | 82% | 1035.4 hPa | 0 mm | - | 18 W/m² | - |
| 1787748102 | 15° C | 81% | 1035.4 hPa | 0 mm | - | 13 W/m² | - |
| 1787747801 | 15.56° C | 81% | 1035.7 hPa | 0 mm | - | 9 W/m² | - |
| 1787747497 | 15.56° C | 80% | 1035.4 hPa | 0 mm | - | 6 W/m² | - |
| 1787747191 | 15.56° C | 81% | 1035.4 hPa | 0 mm | - | 4 W/m² | - |
| 1787746888 | 15.56° C | 81% | 1035.3 hPa | 0 mm | - | 2 W/m² | - |
| 1787746587 | 15.56° C | 82% | 1035.3 hPa | 0 mm | - | 1 W/m² | - |
| 1787746281 | 15° C | 82% | 1035.3 hPa | 0 mm | - | 1 W/m² | - |
| 1787745980 | 15.56° C | 81% | 1035.2 hPa | 0 mm | - | 0 W/m² | - |
| 1787745674 | 15.56° C | 80% | 1035.1 hPa | 0 mm | - | 0 W/m² | - |
| 1787745369 | 15.56° C | 80% | 1035.2 hPa | 0 mm | - | 0 W/m² | - |
| 1787745068 | 15.56° C | 80% | 1035.2 hPa | 0 mm | - | 0 W/m² | - |
| 1787744764 | 15.56° C | 79% | 1035.4 hPa | 0 mm | - | 0 W/m² | - |
* Rain latest hour (hover to see other rain measurements)
** Current wind speed in m/s (hover to see current wind gust speed)